Boynton Beach, FL (33435)

6:48 PM EDT on September 20, 2014 (GMT -0400)
Forest Park | Change Station
CLOSE
Current Station
Personal Weather Station
Location: Boynton Beach, FL
Elevation: 15 ft
Nearby Weather Stations

Elev 15 ft 26.52 °N, 80.07 °W | Updated 5 seconds ago

Partly Cloudy
Partly Cloudy
81.1 °F
Feels Like 86 °F
N
2.3
Wind Variable Wind from WSW
Gusts 2.3 mph

Today
High -- | Low -- °F
--% Chance of Precip.
Yesterday
High -- | Low -- °F
Precip. -- in
7:07 AM 7:18 PM
Waning Crescent, 10% visible
Pressure 29.90 in
Visibility 10.0 miles
Clouds Few 2400 ft
Scattered Clouds 5500 ft
Mostly Cloudy 18000 ft
Heat Index 86 °F
Dew Point 73 °F
Humidity 77%
Rainfall 0.03 in
Snow Depth Not available.
UV 1 out of 12
Pollen 3.00 out of 12
Ozone Good
PM2.5 Good
Flu Activity Not available.
METAR KPBI 202153Z 27012KT 10SM FEW024 SCT055 BKN180 27/22 A2990 RMK AO2 SLP123 CB DSNT E-SE T02720222 $

More Conditions Fewer Conditions

Pressure 29.90 in
Visibility 10.0 miles
Clouds Few 2400 ft
Scattered Clouds 5500 ft
Mostly Cloudy 18000 ft
Heat Index 86 °F
Dew Point 73 °F
Humidity 77%
Rainfall 0.03 in
Snow Depth Not available.
UV 1 out of 12
Pollen 3.00 out of 12
Ozone Good
PM2.5 Good
Flu Activity Not available.
METAR KPBI 202153Z 27012KT 10SM FEW024 SCT055 BKN180 27/22 A2990 RMK AO2 SLP123 CB DSNT E-SE T02720222 $

More Conditions Fewer Conditions

10-Day Weather Forecast

Almanac

Astronomy

Sep. 20, 2014 Rise Set
Actual Time 7:07 AM EDT 7:18 PM EDT
Civil Twilight 6:44 AM EDT 7:42 PM EDT
Nautical Twilight 6:17 AM EDT 8:08 PM EDT
Astronomical Twilight 5:50 AM EDT 8:36 PM EDT
Moon 4:00 AM EDT 5:08 PM EDT
Length of Visible Light 12h 57m
Length of Day
12h 10m
Tomorrow will be 1m 34s shorter.
Waning Crescent, 10% of the Moon is Illuminated
Today
Waning Crescent
Sep 24
New
Oct 1
First Quarter
Oct 8
Full
Oct 15
Last Quarter

Today's Extremes

State Highs State Lows

Community

WunderPhotos

Upload Photos

1,754,970 photos uploaded!

WunderBlogs® & News

Nearby

Air Quality

  Air Quality AQ Index Pollutant
Yesterday Good
PM2.5
Yesterday Good
OZONE
Current Good
PM2.5
Current Good
OZONE
Saturday Good
OZONE
Saturday Good
PM2.5
Sunday Good
OZONE
Sunday Good
PM2.5
Monday Good
OZONE
Monday Good
PM2.5

Snow Depth

Station Depth Elevation
No new snow has been reported.

Earthquake Activity

City Distance Mag. Time & Date
No recent earthquake activity has been reported nearby.
Minimum magnitude displayed is 2.5.

Coastal Water Temperatures

Place Temperature
Lake Worth, FL 86.0 °F
Virginia Key, FL 84.9 °F

Nearby Weather Stations